createdAt,value
2023-11-30T00:00:35.060Z,82.59
2023-11-30T00:03:01.525Z,82.45
2023-11-30T00:05:28.232Z,82.33
2023-11-30T00:07:54.602Z,82.66
2023-11-30T00:10:20.974Z,82.43
2023-11-30T00:12:47.434Z,82.14
2023-11-30T00:15:14.165Z,82.26
2023-11-30T00:17:40.649Z,82.36
2023-11-30T00:20:07.846Z,82.41
2023-11-30T00:22:34.221Z,82.34
2023-11-30T00:25:00.701Z,82.26
2023-11-30T00:27:27.074Z,82.26
2023-11-30T00:29:53.477Z,82.38
2023-11-30T00:32:19.834Z,82.30
2023-11-30T00:34:46.179Z,82.43
2023-11-30T00:37:12.610Z,82.29
2023-11-30T00:39:38.995Z,82.36
2023-11-30T00:42:05.648Z,82.26
2023-11-30T00:44:32.221Z,81.70
2023-11-30T00:46:58.571Z,81.75
2023-11-30T00:49:24.936Z,81.78
2023-11-30T00:51:51.314Z,82.13
2023-11-30T00:54:17.737Z,82.40
2023-11-30T00:56:44.170Z,82.47
2023-11-30T00:59:10.569Z,82.63
2023-11-30T01:01:36.960Z,82.39
2023-11-30T01:04:03.448Z,82.71
2023-11-30T01:06:29.865Z,82.81
2023-11-30T01:08:56.271Z,82.82
2023-11-30T01:11:22.621Z,82.54
2023-11-30T01:13:48.989Z,82.18
2023-11-30T01:16:15.456Z,82.04
2023-11-30T01:18:41.939Z,82.08
2023-11-30T01:21:08.634Z,82.09
2023-11-30T01:23:35.015Z,82.38
2023-11-30T01:26:02.284Z,81.93
2023-11-30T01:28:28.612Z,82.49
2023-11-30T01:30:55.036Z,82.20
2023-11-30T01:33:21.537Z,82.20
2023-11-30T01:35:47.897Z,82.45
2023-11-30T01:38:14.241Z,82.66
2023-11-30T01:40:40.635Z,82.37
2023-11-30T01:43:07.166Z,82.25
2023-11-30T01:45:33.556Z,82.26
2023-11-30T01:48:00.545Z,82.25
2023-11-30T01:50:27.542Z,81.80
2023-11-30T01:52:53.972Z,82.06
2023-11-30T01:55:20.594Z,82.00
2023-11-30T01:57:47.254Z,82.19
2023-11-30T02:00:14.636Z,81.43
2023-11-30T02:02:41.101Z,81.30
2023-11-30T02:05:07.818Z,81.48
2023-11-30T02:07:34.287Z,81.05
2023-11-30T02:10:00.741Z,81.48
2023-11-30T02:12:27.167Z,81.52
2023-11-30T02:14:53.607Z,81.71
2023-11-30T02:17:19.974Z,81.75
2023-11-30T02:19:46.398Z,81.56
2023-11-30T02:22:12.797Z,81.09
2023-11-30T02:24:39.158Z,81.38
2023-11-30T02:27:05.727Z,81.51
2023-11-30T02:29:32.099Z,81.28
2023-11-30T02:31:58.534Z,81.33
2023-11-30T02:34:24.902Z,81.17
2023-11-30T02:36:51.351Z,81.05
2023-11-30T02:39:17.770Z,81.33
2023-11-30T02:41:44.225Z,81.28
2023-11-30T02:44:10.575Z,81.15
2023-11-30T02:46:37.076Z,81.24
2023-11-30T02:49:03.446Z,81.10
2023-11-30T02:51:29.907Z,81.31
2023-11-30T02:53:56.358Z,80.93
2023-11-30T02:56:22.789Z,80.97
2023-11-30T02:58:49.199Z,81.25
2023-11-30T03:01:15.660Z,81.57
2023-11-30T03:03:42.179Z,81.31
2023-11-30T03:06:12.682Z,81.18
2023-11-30T03:08:39.325Z,80.93
2023-11-30T03:11:05.900Z,81.16
2023-11-30T03:13:32.299Z,81.10
2023-11-30T03:15:58.672Z,81.23
2023-11-30T03:18:25.229Z,81.37
2023-11-30T03:20:51.730Z,82.12
2023-11-30T03:23:18.184Z,81.93
2023-11-30T03:25:44.550Z,81.96
2023-11-30T03:28:10.942Z,82.32
2023-11-30T03:30:37.344Z,82.34
2023-11-30T03:33:04.151Z,82.17
2023-11-30T03:35:30.566Z,82.45
2023-11-30T03:37:56.893Z,82.31
2023-11-30T03:40:23.266Z,82.04
2023-11-30T03:42:49.605Z,82.42
2023-11-30T03:45:16.043Z,82.51
2023-11-30T03:47:42.430Z,82.68
2023-11-30T03:50:09.159Z,82.57
2023-11-30T03:52:35.561Z,82.67
2023-11-30T03:55:01.941Z,82.69
2023-11-30T03:57:28.400Z,82.41
2023-11-30T03:59:54.765Z,82.67
2023-11-30T04:02:21.502Z,83.47
2023-11-30T04:04:47.931Z,84.08
2023-11-30T04:07:14.343Z,83.50
2023-11-30T04:09:40.804Z,83.81
2023-11-30T04:12:07.607Z,83.69
2023-11-30T04:14:33.994Z,83.71
2023-11-30T04:17:03.425Z,83.48
2023-11-30T04:19:31.094Z,83.10
2023-11-30T04:21:57.453Z,83.33
2023-11-30T04:24:23.892Z,82.99
2023-11-30T04:26:50.460Z,82.68
2023-11-30T04:29:16.781Z,82.64
2023-11-30T04:31:43.214Z,82.57
2023-11-30T04:34:09.654Z,82.52
2023-11-30T04:36:36.114Z,82.30
2023-11-30T04:39:02.539Z,82.84
2023-11-30T04:41:28.949Z,82.86
2023-11-30T04:43:55.309Z,82.82
2023-11-30T04:46:21.698Z,82.70
2023-11-30T04:48:48.383Z,82.67
2023-11-30T04:51:14.854Z,82.72
2023-11-30T04:53:41.211Z,83.12
2023-11-30T04:56:08.036Z,82.33
2023-11-30T04:58:34.404Z,83.01
2023-11-30T05:01:01.050Z,82.38
2023-11-30T05:03:27.595Z,82.85
2023-11-30T05:05:54.010Z,82.86
2023-11-30T05:08:20.452Z,83.28
2023-11-30T05:10:46.780Z,83.92
2023-11-30T05:13:13.252Z,84.21
2023-11-30T05:15:39.690Z,83.88
2023-11-30T05:18:07.063Z,84.28
2023-11-30T05:20:34.409Z,83.98
2023-11-30T05:23:00.815Z,84.89
2023-11-30T05:25:27.184Z,85.13
2023-11-30T05:27:53.556Z,84.93
2023-11-30T05:30:20.083Z,85.36
2023-11-30T05:32:46.481Z,84.65
2023-11-30T05:35:12.882Z,85.04
2023-11-30T05:37:39.341Z,85.26
2023-11-30T05:40:06.364Z,85.39
2023-11-30T05:42:32.722Z,85.77
2023-11-30T05:44:59.135Z,86.20
2023-11-30T05:47:25.555Z,85.86
2023-11-30T05:49:52.436Z,85.66
2023-11-30T05:52:18.883Z,85.55
2023-11-30T05:54:45.710Z,85.95
2023-11-30T05:57:12.269Z,85.11
2023-11-30T05:59:39.058Z,85.46
2023-11-30T06:02:05.618Z,84.68
2023-11-30T06:04:32.934Z,84.72
2023-11-30T06:06:59.475Z,84.59
2023-11-30T06:09:25.972Z,84.63
2023-11-30T06:11:52.384Z,84.79
2023-11-30T06:14:19.321Z,83.96
2023-11-30T06:16:46.058Z,84.69
2023-11-30T06:19:13.581Z,84.40
2023-11-30T06:21:40.516Z,84.33
2023-11-30T06:24:07.013Z,84.30
2023-11-30T06:26:33.596Z,84.30
2023-11-30T06:29:00.145Z,84.12
2023-11-30T06:31:26.523Z,84.30
2023-11-30T06:33:52.964Z,84.50
2023-11-30T06:36:19.330Z,84.13
2023-11-30T06:38:45.691Z,84.49
2023-11-30T06:41:13.672Z,85.07
2023-11-30T06:43:40.908Z,85.57
2023-11-30T06:46:08.880Z,85.63
2023-11-30T06:48:35.766Z,85.63
2023-11-30T06:51:02.174Z,85.37
2023-11-30T06:53:28.533Z,85.17
2023-11-30T06:55:54.908Z,85.01
2023-11-30T06:58:21.268Z,85.14
2023-11-30T07:00:47.762Z,85.23
2023-11-30T07:03:14.344Z,85.66
2023-11-30T07:05:41.644Z,85.01
2023-11-30T07:08:07.987Z,85.47
2023-11-30T07:10:34.417Z,85.57
2023-11-30T07:13:00.830Z,86.57
2023-11-30T07:15:27.237Z,86.33
2023-11-30T07:17:53.629Z,85.81
2023-11-30T07:20:21.182Z,85.71
2023-11-30T07:22:47.528Z,85.90
2023-11-30T07:25:13.877Z,85.97
2023-11-30T07:27:40.393Z,86.51
2023-11-30T07:30:10.812Z,86.12
2023-11-30T07:32:37.783Z,86.46
2023-11-30T07:35:05.356Z,85.95
2023-11-30T07:37:31.743Z,85.80
2023-11-30T07:39:58.099Z,86.11
2023-11-30T07:42:32.705Z,85.78
2023-11-30T07:45:04.092Z,85.78
2023-11-30T07:47:30.746Z,85.68
2023-11-30T07:49:57.194Z,84.91
2023-11-30T07:52:23.538Z,84.81
2023-11-30T07:54:49.920Z,84.34
2023-11-30T07:57:16.353Z,84.51
2023-11-30T07:59:42.823Z,83.54
2023-11-30T08:02:09.225Z,83.62
2023-11-30T08:04:38.752Z,83.77
2023-11-30T08:07:05.716Z,83.66
2023-11-30T08:09:32.203Z,82.60
2023-11-30T08:11:58.973Z,83.12
2023-11-30T08:14:25.304Z,82.72
2023-11-30T08:16:51.719Z,81.79
2023-11-30T08:19:18.107Z,81.53
2023-11-30T08:21:44.495Z,81.75
2023-11-30T08:24:14.797Z,81.79
2023-11-30T08:26:41.141Z,80.16
2023-11-30T08:29:08.082Z,80.89
2023-11-30T08:31:34.588Z,81.28
2023-11-30T08:34:02.016Z,80.62
2023-11-30T08:36:28.538Z,79.84
2023-11-30T08:38:54.936Z,79.38
2023-11-30T08:41:21.290Z,79.21
2023-11-30T08:43:50.871Z,79.48
2023-11-30T08:46:17.233Z,79.45
2023-11-30T08:48:45.591Z,80.32
2023-11-30T08:51:12.475Z,79.07
2023-11-30T08:53:38.816Z,79.29
2023-11-30T08:56:06.760Z,77.61
2023-11-30T08:58:33.131Z,77.82
2023-11-30T09:00:59.515Z,79.05
2023-11-30T09:03:25.939Z,77.08
2023-11-30T09:05:52.301Z,77.19
2023-11-30T09:08:21.073Z,77.08
2023-11-30T09:10:47.904Z,76.74
2023-11-30T09:13:14.294Z,77.41
2023-11-30T09:15:40.677Z,77.15
2023-11-30T09:18:07.174Z,77.41
2023-11-30T09:20:34.922Z,78.06
2023-11-30T09:23:01.337Z,78.59
2023-11-30T09:25:27.969Z,78.04
2023-11-30T09:27:55.697Z,78.27
2023-11-30T09:30:22.304Z,77.23
2023-11-30T09:32:51.754Z,77.76
2023-11-30T09:35:18.065Z,76.17
2023-11-30T09:37:44.415Z,76.80
2023-11-30T09:40:11.076Z,76.24
2023-11-30T09:42:39.245Z,76.43
2023-11-30T09:45:06.071Z,75.69
2023-11-30T09:47:32.657Z,75.76
2023-11-30T09:49:59.643Z,75.07
2023-11-30T09:52:26.519Z,76.22
2023-11-30T09:54:52.880Z,75.38
2023-11-30T09:57:19.704Z,76.31
2023-11-30T09:59:46.102Z,76.24
2023-11-30T10:02:12.585Z,73.42
2023-11-30T10:04:40.543Z,74.34
2023-11-30T10:07:06.898Z,73.81
2023-11-30T10:09:34.085Z,74.64
2023-11-30T10:12:02.468Z,74.20
2023-11-30T10:14:28.839Z,75.06
2023-11-30T10:16:56.039Z,75.00
2023-11-30T10:19:22.909Z,75.19
2023-11-30T10:21:50.722Z,73.55
2023-11-30T10:24:17.078Z,72.47
2023-11-30T10:26:43.929Z,71.85
2023-11-30T10:29:17.988Z,73.25
2023-11-30T10:31:47.941Z,73.21
2023-11-30T10:34:21.511Z,72.72
2023-11-30T10:36:47.954Z,71.79
2023-11-30T10:39:14.489Z,72.51
2023-11-30T10:41:50.621Z,71.79
2023-11-30T10:44:22.529Z,71.59
2023-11-30T10:46:52.018Z,72.21
2023-11-30T10:49:19.416Z,70.66
2023-11-30T10:51:45.918Z,72.32
2023-11-30T10:54:24.716Z,70.94
2023-11-30T10:56:52.005Z,70.74
2023-11-30T10:59:18.367Z,70.93
2023-11-30T11:01:45.309Z,69.67
2023-11-30T11:04:16.440Z,70.40
2023-11-30T11:06:43.121Z,69.39
2023-11-30T11:09:10.891Z,69.94
2023-11-30T11:11:42.846Z,69.30
2023-11-30T11:14:09.181Z,69.65
2023-11-30T11:16:38.371Z,67.12
2023-11-30T11:19:05.981Z,69.25
2023-11-30T11:21:39.373Z,68.13
2023-11-30T11:24:08.376Z,66.94
2023-11-30T11:26:48.462Z,68.08
2023-11-30T11:29:21.286Z,65.78
2023-11-30T11:31:53.905Z,67.41
2023-11-30T11:34:20.532Z,67.90
2023-11-30T11:36:46.997Z,66.57
2023-11-30T11:39:13.392Z,66.44
2023-11-30T11:41:41.774Z,66.13
2023-11-30T11:44:08.183Z,66.13
2023-11-30T11:46:34.553Z,67.18
2023-11-30T11:49:00.996Z,67.47
2023-11-30T11:51:29.193Z,65.98
2023-11-30T11:53:55.944Z,63.74
2023-11-30T11:56:23.119Z,64.59
2023-11-30T11:58:51.627Z,65.55
2023-11-30T12:01:18.022Z,66.88
2023-11-30T12:03:50.481Z,66.13
2023-11-30T12:06:28.478Z,63.46
2023-11-30T12:08:54.864Z,65.49
2023-11-30T12:11:21.472Z,64.53
2023-11-30T12:13:54.902Z,65.81
2023-11-30T12:16:21.282Z,65.27
2023-11-30T12:18:47.884Z,64.42
2023-11-30T12:21:14.305Z,63.86
2023-11-30T12:23:41.258Z,64.55
2023-11-30T12:26:07.871Z,65.57
2023-11-30T12:28:34.577Z,65.67
2023-11-30T12:31:01.108Z,66.35
2023-11-30T12:33:27.774Z,65.20
2023-11-30T12:35:54.420Z,65.47
2023-11-30T12:38:20.862Z,64.08
2023-11-30T12:40:47.195Z,65.06
2023-11-30T12:43:13.603Z,64.00
2023-11-30T12:45:40.030Z,65.32
2023-11-30T12:48:06.471Z,65.54
2023-11-30T12:50:34.435Z,65.47
2023-11-30T12:53:01.037Z,66.30
2023-11-30T12:55:27.552Z,65.43
2023-11-30T12:57:54.083Z,66.10
2023-11-30T13:00:20.497Z,66.87
2023-11-30T13:02:47.363Z,66.04
2023-11-30T13:05:14.863Z,65.51
2023-11-30T13:07:41.482Z,65.50
2023-11-30T13:10:12.250Z,66.24
2023-11-30T13:12:39.241Z,66.41
2023-11-30T13:15:06.063Z,67.05
2023-11-30T13:17:32.463Z,66.68
2023-11-30T13:19:58.819Z,66.76
2023-11-30T13:22:25.150Z,66.66
2023-11-30T13:24:51.553Z,66.84
2023-11-30T13:27:17.958Z,66.06
2023-11-30T13:29:44.319Z,66.84
2023-11-30T13:32:13.237Z,67.64
2023-11-30T13:34:39.749Z,67.52
2023-11-30T13:37:06.637Z,68.15
2023-11-30T13:39:33.051Z,67.12
2023-11-30T13:41:59.818Z,67.82
2023-11-30T13:44:26.337Z,67.69
2023-11-30T13:46:53.932Z,68.26
2023-11-30T13:49:20.425Z,68.53
2023-11-30T13:51:47.212Z,68.60
2023-11-30T13:54:15.460Z,69.09
2023-11-30T13:56:41.886Z,69.17
2023-11-30T13:59:08.484Z,69.59
2023-11-30T14:01:35.306Z,70.10
2023-11-30T14:04:01.893Z,70.22
2023-11-30T14:06:28.346Z,70.25
2023-11-30T14:08:54.704Z,70.44
2023-11-30T14:11:21.021Z,70.79
2023-11-30T14:13:47.449Z,70.91
2023-11-30T14:16:13.896Z,70.82
2023-11-30T14:18:40.498Z,71.06
2023-11-30T14:21:07.024Z,71.92
2023-11-30T14:23:33.379Z,71.76
2023-11-30T14:25:59.739Z,72.05
2023-11-30T14:28:26.248Z,72.01
2023-11-30T14:30:53.506Z,71.59
2023-11-30T14:33:19.959Z,72.14
2023-11-30T14:35:49.758Z,72.43
2023-11-30T14:38:16.113Z,72.73
2023-11-30T14:40:42.438Z,73.07
2023-11-30T14:43:08.838Z,73.50
2023-11-30T14:45:35.428Z,73.85
2023-11-30T14:48:01.947Z,73.94
2023-11-30T14:50:28.307Z,73.72
2023-11-30T14:52:54.801Z,73.78
2023-11-30T14:55:21.226Z,74.15
2023-11-30T14:57:47.699Z,74.93
2023-11-30T15:00:14.675Z,75.38
2023-11-30T15:02:41.623Z,76.00
2023-11-30T15:05:08.312Z,75.43
2023-11-30T15:07:34.678Z,76.06
2023-11-30T15:10:01.115Z,76.71
2023-11-30T15:12:27.540Z,76.27
2023-11-30T15:14:53.948Z,76.46
2023-11-30T15:17:20.640Z,76.95
2023-11-30T15:19:46.992Z,76.81
2023-11-30T15:22:13.394Z,76.98
2023-11-30T15:24:40.094Z,76.51
2023-11-30T15:27:06.583Z,77.45
2023-11-30T15:29:32.981Z,77.38
2023-11-30T15:31:59.486Z,77.05
2023-11-30T15:34:25.852Z,77.38
2023-11-30T15:36:52.333Z,77.51
2023-11-30T15:39:18.718Z,78.20
2023-11-30T15:41:46.678Z,77.66
2023-11-30T15:44:13.175Z,77.71
2023-11-30T15:46:44.535Z,78.06
2023-11-30T15:49:11.134Z,78.26
2023-11-30T15:51:41.009Z,78.21
2023-11-30T15:54:07.414Z,78.54
2023-11-30T15:56:33.998Z,78.88
2023-11-30T15:59:00.843Z,77.86
2023-11-30T16:01:27.396Z,78.08
2023-11-30T16:03:56.640Z,78.07
2023-11-30T16:06:27.159Z,77.49
2023-11-30T16:08:53.558Z,78.01
2023-11-30T16:11:20.152Z,78.02
2023-11-30T16:13:46.579Z,78.00
2023-11-30T16:16:13.101Z,78.20
2023-11-30T16:18:40.726Z,78.97
2023-11-30T16:21:14.145Z,79.37
2023-11-30T16:23:40.601Z,78.77
2023-11-30T16:26:07.105Z,78.93
2023-11-30T16:28:33.519Z,78.80
2023-11-30T16:30:59.953Z,78.61
2023-11-30T16:33:28.129Z,79.02
2023-11-30T16:35:55.127Z,79.84
2023-11-30T16:38:21.560Z,79.67
2023-11-30T16:40:47.898Z,79.05
2023-11-30T16:43:14.254Z,79.52
2023-11-30T16:45:40.623Z,79.70
2023-11-30T16:48:07.152Z,80.04
2023-11-30T16:50:33.493Z,80.37
2023-11-30T16:52:59.908Z,80.13
2023-11-30T16:55:26.324Z,80.41
2023-11-30T16:57:52.801Z,80.16
2023-11-30T17:00:19.499Z,80.46
2023-11-30T17:02:46.135Z,79.78
2023-11-30T17:05:12.574Z,79.61
2023-11-30T17:07:39.401Z,79.63
2023-11-30T17:10:06.176Z,80.35
2023-11-30T17:12:32.608Z,80.67
2023-11-30T17:15:00.399Z,80.40
2023-11-30T17:17:26.753Z,79.54
2023-11-30T17:19:53.108Z,79.44
2023-11-30T17:22:19.493Z,79.35
2023-11-30T17:24:45.880Z,79.37
2023-11-30T17:27:13.452Z,78.94
2023-11-30T17:29:39.820Z,79.05
2023-11-30T17:32:10.124Z,79.58
2023-11-30T17:34:37.520Z,80.06
2023-11-30T17:37:04.143Z,80.18
2023-11-30T17:39:30.808Z,79.79
2023-11-30T17:41:57.597Z,79.83
2023-11-30T17:44:23.995Z,80.11
2023-11-30T17:46:50.371Z,80.12
2023-11-30T17:49:17.416Z,80.13
2023-11-30T17:51:43.779Z,80.18
2023-11-30T17:54:10.264Z,80.19
2023-11-30T17:56:36.619Z,80.08
2023-11-30T17:59:02.985Z,80.53
2023-11-30T18:01:29.438Z,80.94
2023-11-30T18:03:55.912Z,81.03
2023-11-30T18:06:22.463Z,81.08
2023-11-30T18:08:48.911Z,81.37
2023-11-30T18:11:15.265Z,82.30
2023-11-30T18:13:41.637Z,81.38
2023-11-30T18:16:08.751Z,82.40
2023-11-30T18:18:35.190Z,82.14
2023-11-30T18:21:01.617Z,82.11
2023-11-30T18:23:28.277Z,82.21
2023-11-30T18:25:54.622Z,81.32
2023-11-30T18:28:21.117Z,81.32
2023-11-30T18:30:47.630Z,82.37
2023-11-30T18:33:14.172Z,81.78
2023-11-30T18:35:40.604Z,81.45
2023-11-30T18:38:07.798Z,81.92
2023-11-30T18:40:34.681Z,82.18
2023-11-30T18:43:01.134Z,81.74
2023-11-30T18:45:27.594Z,81.85
2023-11-30T18:47:54.003Z,81.69
2023-11-30T18:50:20.422Z,82.02
2023-11-30T18:52:47.194Z,81.97
2023-11-30T18:55:13.841Z,82.81
2023-11-30T18:57:40.337Z,83.13
2023-11-30T19:00:08.662Z,83.09
2023-11-30T19:02:35.382Z,83.75
2023-11-30T19:05:01.835Z,83.52
2023-11-30T19:07:29.479Z,82.91
2023-11-30T19:09:57.083Z,83.24
2023-11-30T19:12:23.545Z,83.54
2023-11-30T19:14:49.943Z,83.32
2023-11-30T19:17:16.438Z,83.17
2023-11-30T19:19:42.803Z,83.87
2023-11-30T19:22:09.130Z,83.90
2023-11-30T19:24:35.759Z,83.59
2023-11-30T19:27:02.139Z,83.27
2023-11-30T19:29:28.554Z,83.00
2023-11-30T19:31:54.998Z,83.13
2023-11-30T19:34:21.855Z,82.80
2023-11-30T19:36:48.205Z,82.96
2023-11-30T19:39:14.672Z,82.75
2023-11-30T19:41:43.020Z,82.24
2023-11-30T19:44:10.149Z,82.10
2023-11-30T19:46:36.500Z,82.48
2023-11-30T19:49:02.953Z,82.56
2023-11-30T19:51:29.379Z,82.44
2023-11-30T19:53:55.809Z,83.19
2023-11-30T19:56:22.305Z,82.68
2023-11-30T19:58:48.710Z,82.01
2023-11-30T20:01:21.312Z,82.01
2023-11-30T20:03:48.072Z,82.24
2023-11-30T20:06:15.399Z,82.13
2023-11-30T20:08:41.930Z,81.88
2023-11-30T20:11:08.636Z,82.25
2023-11-30T20:13:34.982Z,81.37
2023-11-30T20:16:01.418Z,81.80
2023-11-30T20:18:28.431Z,81.20
2023-11-30T20:20:54.828Z,81.10
2023-11-30T20:23:21.207Z,82.20
2023-11-30T20:25:47.808Z,81.83
2023-11-30T20:28:14.142Z,81.91
2023-11-30T20:30:40.588Z,82.04
2023-11-30T20:33:07.093Z,82.48
2023-11-30T20:35:33.482Z,82.61
2023-11-30T20:38:01.079Z,83.04
2023-11-30T20:40:27.443Z,83.03
2023-11-30T20:42:54.149Z,83.35
2023-11-30T20:45:20.557Z,83.55
2023-11-30T20:47:46.959Z,83.99
2023-11-30T20:50:13.424Z,83.93
2023-11-30T20:52:39.773Z,83.66
2023-11-30T20:55:06.623Z,84.23
2023-11-30T20:57:33.069Z,84.37
2023-11-30T20:59:59.433Z,83.91
2023-11-30T21:02:25.910Z,83.40
2023-11-30T21:04:52.290Z,83.66
2023-11-30T21:07:18.775Z,83.40
2023-11-30T21:09:45.221Z,83.63
2023-11-30T21:12:14.042Z,83.23
2023-11-30T21:14:41.952Z,83.81
2023-11-30T21:17:08.381Z,83.49
2023-11-30T21:19:34.800Z,83.67
2023-11-30T21:22:01.308Z,83.39
2023-11-30T21:24:27.790Z,82.93
2023-11-30T21:26:54.135Z,83.37
2023-11-30T21:29:20.469Z,83.62
2023-11-30T21:31:46.961Z,83.32
2023-11-30T21:34:13.949Z,83.64
2023-11-30T21:36:40.634Z,83.62
2023-11-30T21:39:07.678Z,83.53
2023-11-30T21:41:34.019Z,83.69
2023-11-30T21:44:00.443Z,83.84
2023-11-30T21:46:26.786Z,83.40
2023-11-30T21:48:53.394Z,83.52
2023-11-30T21:51:19.767Z,83.63
2023-11-30T21:53:47.450Z,84.42
2023-11-30T21:56:13.784Z,84.01
2023-11-30T21:58:40.457Z,84.50
2023-11-30T22:01:07.455Z,84.65
2023-11-30T22:03:36.151Z,84.92
2023-11-30T22:06:02.685Z,84.38
2023-11-30T22:08:29.294Z,84.06
2023-11-30T22:10:55.779Z,84.55
2023-11-30T22:13:22.442Z,84.32
2023-11-30T22:15:55.263Z,84.48
2023-11-30T22:18:28.392Z,84.23
2023-11-30T22:20:54.764Z,83.75
2023-11-30T22:23:21.096Z,83.95
2023-11-30T22:25:53.332Z,83.71
2023-11-30T22:28:22.503Z,83.76
2023-11-30T22:30:49.017Z,83.67
2023-11-30T22:33:15.373Z,83.72
2023-11-30T22:35:41.743Z,84.16
2023-11-30T22:38:09.280Z,84.49
2023-11-30T22:40:35.604Z,84.22
2023-11-30T22:43:01.981Z,85.84
2023-11-30T22:45:28.427Z,85.36
2023-11-30T22:47:54.866Z,84.84
2023-11-30T22:50:21.295Z,84.67
2023-11-30T22:52:47.809Z,84.42
2023-11-30T22:55:14.375Z,84.75
2023-11-30T22:57:40.865Z,83.93
2023-11-30T23:00:09.506Z,85.18
2023-11-30T23:02:36.158Z,85.19
2023-11-30T23:05:02.768Z,84.87
2023-11-30T23:07:29.288Z,85.22
2023-11-30T23:09:55.673Z,85.16
2023-11-30T23:12:22.146Z,85.03
2023-11-30T23:14:48.521Z,84.97
2023-11-30T23:17:14.863Z,85.09
2023-11-30T23:19:41.273Z,84.45
2023-11-30T23:22:07.683Z,84.86
2023-11-30T23:24:34.088Z,84.62
2023-11-30T23:27:00.556Z,84.40
2023-11-30T23:29:26.920Z,84.48
2023-11-30T23:31:54.159Z,84.69
2023-11-30T23:34:20.593Z,84.68
2023-11-30T23:36:47.021Z,84.84
2023-11-30T23:39:13.362Z,84.45
2023-11-30T23:41:39.738Z,84.48
2023-11-30T23:44:06.122Z,84.17
2023-11-30T23:46:32.613Z,84.43
2023-11-30T23:48:59.134Z,84.51
2023-11-30T23:51:25.744Z,84.46
2023-11-30T23:53:52.167Z,84.11
2023-11-30T23:56:18.555Z,84.16
2023-11-30T23:58:45.086Z,84.38
